Time,TemperatureF,DewpointF,PressureIn,WindDirection,WindDirectionDegrees,WindSpeedMPH,WindSpeedGustMPH,Humidity,HourlyPrecipIn,Conditions,Clouds,dailyrainin,SoftwareType,DateUTC
2013-08-11 00:02:00,71.1,66.4,30.26,NW,315,0.0,0.0,85,0.00,,,0.00,meteohub,2013-08-11 04:02:00,
2013-08-11 00:12:00,72.0,67.5,30.25,SW,225,0.0,2.0,86,0.00,,,0.00,meteohub,2013-08-11 04:12:00,
2013-08-11 00:22:00,72.0,67.5,30.26,SW,225,0.0,2.0,86,0.00,,,0.00,meteohub,2013-08-11 04:22:00,
2013-08-11 00:32:00,72.0,67.5,30.26,SW,225,0.0,2.0,86,0.00,,,0.00,meteohub,2013-08-11 04:32:00,
2013-08-11 00:42:00,72.0,67.5,30.25,SW,225,0.0,2.0,86,0.00,,,0.00,meteohub,2013-08-11 04:42:00,
2013-08-11 00:52:00,72.0,67.5,30.25,SW,225,0.0,0.0,86,0.00,,,0.00,meteohub,2013-08-11 04:52:00,
2013-08-11 01:02:00,72.0,67.5,30.25,SW,225,1.0,0.0,86,0.00,,,0.00,meteohub,2013-08-11 05:02:00,
2013-08-11 01:12:00,72.0,67.5,30.25,SW,225,0.0,1.0,86,0.00,,,0.00,meteohub,2013-08-11 05:12:00,
2013-08-11 01:22:00,72.0,67.5,30.24,SW,225,1.0,1.0,86,0.00,,,0.00,meteohub,2013-08-11 05:22:00,
2013-08-11 01:32:00,72.0,67.5,30.24,SW,225,0.0,1.0,86,0.00,,,0.00,meteohub,2013-08-11 05:32:00,
2013-08-11 01:42:00,72.0,67.5,30.24,SW,225,0.0,1.0,86,0.00,,,0.00,meteohub,2013-08-11 05:42:00,
2013-08-11 01:52:00,72.0,67.3,30.24,SW,225,0.0,0.0,85,0.00,,,0.00,meteohub,2013-08-11 05:52:00,
2013-08-11 02:02:00,72.0,67.3,30.24,SW,225,0.0,1.0,85,0.00,,,0.00,meteohub,2013-08-11 06:02:00,
2013-08-11 02:12:00,72.0,67.3,30.24,SW,225,0.0,0.0,85,0.00,,,0.00,meteohub,2013-08-11 06:12:00,
2013-08-11 02:25:00,72.0,67.3,30.24,SW,225,0.0,1.0,85,0.00,,,0.00,meteohub,2013-08-11 06:25:00,
2013-08-11 02:32:00,72.0,67.5,30.24,SW,225,0.0,0.0,86,0.00,,,0.00,meteohub,2013-08-11 06:32:00,
2013-08-11 02:42:00,72.0,67.5,30.24,SW,225,0.0,0.0,86,0.00,,,0.00,meteohub,2013-08-11 06:42:00,
2013-08-11 02:55:00,72.0,67.5,30.24,SW,225,0.0,0.0,86,0.00,,,0.00,meteohub,2013-08-11 06:55:00,
2013-08-11 03:02:00,72.0,67.8,30.24,SW,225,0.0,0.0,87,0.00,,,0.00,meteohub,2013-08-11 07:02:00,
2013-08-11 03:12:00,72.0,67.8,30.24,SW,225,0.0,0.0,87,0.00,,,0.00,meteohub,2013-08-11 07:12:00,
2013-08-11 03:22:00,72.0,68.2,30.24,SW,225,0.0,0.0,88,0.00,,,0.00,meteohub,2013-08-11 07:22:00,
2013-08-11 03:32:00,72.0,68.2,30.24,SW,225,0.0,0.0,88,0.00,,,0.00,meteohub,2013-08-11 07:32:00,
2013-08-11 03:42:00,72.0,68.2,30.23,SW,225,0.0,0.0,88,0.00,,,0.00,meteohub,2013-08-11 07:42:00,
2013-08-11 03:56:00,72.0,68.2,30.24,SW,225,0.0,0.0,88,0.00,,,0.00,meteohub,2013-08-11 07:56:00,
2013-08-11 04:02:00,71.1,67.6,30.24,SW,225,0.0,0.0,89,0.00,,,0.00,meteohub,2013-08-11 08:02:00,
2013-08-11 04:12:00,71.1,67.6,30.24,SW,225,0.0,0.0,89,0.00,,,0.00,meteohub,2013-08-11 08:12:00,
2013-08-11 04:22:00,71.1,68.0,30.24,SW,225,1.0,0.0,90,0.00,,,0.00,meteohub,2013-08-11 08:22:00,
2013-08-11 04:32:00,71.1,68.0,30.24,SW,225,0.0,1.0,90,0.00,,,0.00,meteohub,2013-08-11 08:32:00,
2013-08-11 04:46:00,71.1,68.0,30.25,SW,225,0.0,0.0,90,0.00,,,0.00,meteohub,2013-08-11 08:46:00,
2013-08-11 04:52:00,71.1,68.0,30.25,SW,225,0.0,0.0,90,0.00,,,0.00,meteohub,2013-08-11 08:52:00,
2013-08-11 05:02:00,71.1,68.4,30.24,SW,225,0.0,0.0,91,0.00,,,0.00,meteohub,2013-08-11 09:02:00,
2013-08-11 05:12:00,71.1,68.4,30.25,SW,225,0.0,0.0,91,0.00,,,0.00,meteohub,2013-08-11 09:12:00,
2013-08-11 05:22:00,71.1,68.5,30.25,SW,225,0.0,0.0,92,0.00,,,0.00,meteohub,2013-08-11 09:22:00,
2013-08-11 05:32:00,71.1,68.5,30.25,SW,225,0.0,0.0,92,0.00,,,0.00,meteohub,2013-08-11 09:32:00,
2013-08-11 05:42:00,71.1,68.5,30.25,SW,225,0.0,0.0,92,0.00,,,0.00,meteohub,2013-08-11 09:42:00,
2013-08-11 05:52:00,71.1,68.5,30.25,SW,225,0.0,0.0,92,0.00,,,0.00,meteohub,2013-08-11 09:52:00,
2013-08-11 06:02:00,71.1,68.9,30.25,SW,225,0.0,0.0,93,0.00,,,0.00,meteohub,2013-08-11 10:02:00,
2013-08-11 06:12:00,71.1,68.9,30.26,SW,225,0.0,0.0,93,0.00,,,0.00,meteohub,2013-08-11 10:12:00,
2013-08-11 06:22:00,71.1,68.9,30.26,SW,225,0.0,0.0,93,0.00,,,0.00,meteohub,2013-08-11 10:22:00,
2013-08-11 06:32:00,71.1,68.9,30.26,SW,225,0.0,0.0,93,0.00,,,0.00,meteohub,2013-08-11 10:32:00,
2013-08-11 06:42:00,71.1,68.9,30.26,SW,225,0.0,0.0,93,0.00,,,0.00,meteohub,2013-08-11 10:42:00,
2013-08-11 06:52:00,71.1,68.9,30.26,SW,225,0.0,0.0,93,0.00,,,0.00,meteohub,2013-08-11 10:52:00,
2013-08-11 07:05:00,71.1,68.9,30.26,SW,225,0.0,0.0,93,0.00,,,0.00,meteohub,2013-08-11 11:05:00,
2013-08-11 07:12:00,71.1,68.9,30.27,SW,225,0.0,0.0,93,0.00,,,0.00,meteohub,2013-08-11 11:12:00,
2013-08-11 07:22:00,71.1,68.9,30.27,SW,225,0.0,0.0,93,0.00,,,0.00,meteohub,2013-08-11 11:22:00,
2013-08-11 07:32:00,71.1,68.9,30.27,SW,225,0.0,0.0,93,0.00,,,0.00,meteohub,2013-08-11 11:32:00,
2013-08-11 07:42:00,71.1,68.9,30.27,SW,225,0.0,0.0,93,0.00,,,0.00,meteohub,2013-08-11 11:42:00,
2013-08-11 07:52:00,71.1,68.9,30.27,SW,225,0.0,0.0,93,0.00,,,0.00,meteohub,2013-08-11 11:52:00,
2013-08-11 08:02:00,72.0,69.8,30.28,SW,225,0.0,0.0,93,0.00,,,0.00,meteohub,2013-08-11 12:02:00,
2013-08-11 08:12:00,72.0,69.4,30.28,SW,225,0.0,0.0,92,0.00,,,0.00,meteohub,2013-08-11 12:12:00,
2013-08-11 08:22:00,73.0,70.3,30.28,SW,225,0.0,0.0,91,0.00,,,0.00,meteohub,2013-08-11 12:22:00,
2013-08-11 08:32:00,73.9,70.5,30.28,SW,225,0.0,0.0,89,0.00,,,0.00,meteohub,2013-08-11 12:32:00,
2013-08-11 08:43:00,73.9,69.4,30.29,SW,225,0.0,0.0,86,0.00,,,0.00,meteohub,2013-08-11 12:43:00,
2013-08-11 08:52:00,75.0,69.4,30.29,SW,225,0.0,1.0,83,0.00,,,0.00,meteohub,2013-08-11 12:52:00,
2013-08-11 09:02:00,75.9,70.0,30.30,SW,225,1.0,2.0,82,0.00,,,0.00,meteohub,2013-08-11 13:02:00,
2013-08-11 09:12:00,75.9,69.6,30.30,SW,225,0.0,2.0,81,0.00,,,0.00,meteohub,2013-08-11 13:12:00,
2013-08-11 09:22:00,77.0,70.3,30.30,SW,225,0.0,2.0,80,0.00,,,0.00,meteohub,2013-08-11 13:22:00,
2013-08-11 09:32:00,77.0,70.3,30.30,SW,225,0.0,2.0,80,0.00,,,0.00,meteohub,2013-08-11 13:32:00,
2013-08-11 09:42:00,77.0,70.3,30.30,SW,225,0.0,2.0,80,0.00,,,0.00,meteohub,2013-08-11 13:42:00,
2013-08-11 09:58:00,77.0,70.0,30.30,SW,225,0.0,2.0,79,0.00,,,0.00,meteohub,2013-08-11 13:58:00,
2013-08-11 10:12:00,78.1,70.0,30.30,West,270,0.0,2.0,76,0.00,,,0.00,meteohub,2013-08-11 14:12:00,
2013-08-11 10:22:00,78.1,69.1,30.30,West,270,0.0,2.0,74,0.00,,,0.00,meteohub,2013-08-11 14:22:00,
2013-08-11 10:32:00,79.0,67.1,30.32,West,270,0.0,2.0,67,0.00,,,0.00,meteohub,2013-08-11 14:32:00,
2013-08-11 10:42:00,80.1,66.4,30.32,West,270,1.0,3.0,63,0.00,,,0.00,meteohub,2013-08-11 14:42:00,
2013-08-11 10:52:00,81.0,65.3,30.33,SSW,202,2.0,3.0,59,0.00,,,0.00,meteohub,2013-08-11 14:52:00,
2013-08-11 11:02:00,81.0,64.8,30.33,SW,225,0.0,2.0,58,0.00,,,0.00,meteohub,2013-08-11 15:02:00,
2013-08-11 11:12:00,82.0,64.8,30.33,SW,225,1.0,2.0,56,0.00,,,0.00,meteohub,2013-08-11 15:12:00,
2013-08-11 11:25:00,82.0,64.2,30.33,SW,225,0.0,2.0,55,0.00,,,0.00,meteohub,2013-08-11 15:25:00,
2013-08-11 11:32:00,82.0,64.8,30.33,SW,225,0.0,2.0,56,0.00,,,0.00,meteohub,2013-08-11 15:32:00,
2013-08-11 11:42:00,82.9,65.1,30.32,SW,225,2.0,2.0,55,0.00,,,0.00,meteohub,2013-08-11 15:42:00,
2013-08-11 11:52:00,82.9,64.0,30.32,SW,225,0.0,2.0,53,0.00,,,0.00,meteohub,2013-08-11 15:52:00,
2013-08-11 12:02:00,82.9,65.7,30.32,SW,225,0.0,2.0,56,0.00,,,0.00,meteohub,2013-08-11 16:02:00,
2013-08-11 12:12:00,84.0,65.1,30.32,SSW,202,1.0,2.0,53,0.00,,,0.00,meteohub,2013-08-11 16:12:00,
2013-08-11 12:22:00,82.0,65.3,30.32,NNW,337,0.0,2.0,57,0.00,,,0.00,meteohub,2013-08-11 16:22:00,
2013-08-11 12:32:00,82.0,65.8,30.31,West,270,0.0,2.0,58,0.00,,,0.00,meteohub,2013-08-11 16:32:00,
2013-08-11 12:42:00,82.0,66.4,30.31,ESE,112,1.0,2.0,59,0.00,,,0.00,meteohub,2013-08-11 16:42:00,
2013-08-11 12:52:00,82.9,65.7,30.31,SW,225,0.0,2.0,56,0.00,,,0.00,meteohub,2013-08-11 16:52:00,
2013-08-11 13:02:00,82.0,63.7,30.30,SE,135,1.0,2.0,54,0.00,,,0.00,meteohub,2013-08-11 17:02:00,
2013-08-11 13:12:00,82.9,63.5,30.30,South,180,2.0,2.0,52,0.00,,,0.00,meteohub,2013-08-11 17:12:00,
2013-08-11 13:22:00,84.0,63.3,30.30,SSW,202,0.0,2.0,50,0.00,,,0.00,meteohub,2013-08-11 17:22:00,
2013-08-11 13:32:00,82.9,63.5,30.30,South,180,0.0,2.0,52,0.00,,,0.00,meteohub,2013-08-11 17:32:00,
2013-08-11 13:48:00,82.9,62.4,30.30,SE,135,0.0,4.0,50,0.00,,,0.00,meteohub,2013-08-11 17:48:00,
2013-08-11 14:02:00,82.9,61.9,30.30,West,270,0.0,2.0,49,0.00,,,0.00,meteohub,2013-08-11 18:02:00,
2013-08-11 14:12:00,82.9,62.4,30.30,SW,225,1.0,2.0,50,0.00,,,0.00,meteohub,2013-08-11 18:12:00,
2013-08-11 14:22:00,82.0,63.7,30.30,SE,135,1.0,3.0,54,0.00,,,0.00,meteohub,2013-08-11 18:22:00,
2013-08-11 14:32:00,82.9,63.5,30.29,SW,225,2.0,2.0,52,0.00,,,0.00,meteohub,2013-08-11 18:32:00,
2013-08-11 14:42:00,82.9,64.0,30.29,SW,225,2.0,2.0,53,0.00,,,0.00,meteohub,2013-08-11 18:42:00,
2013-08-11 14:52:00,82.9,63.5,30.29,South,180,1.0,4.0,52,0.00,,,0.00,meteohub,2013-08-11 18:52:00,
2013-08-11 15:02:00,84.0,63.3,30.29,South,180,0.0,3.0,50,0.00,,,0.00,meteohub,2013-08-11 19:02:00,
2013-08-11 15:12:00,86.0,63.5,30.29,South,180,1.0,4.0,47,0.00,,,0.00,meteohub,2013-08-11 19:12:00,
2013-08-11 15:22:00,84.9,62.4,30.29,SE,135,1.0,4.0,47,0.00,,,0.00,meteohub,2013-08-11 19:22:00,
2013-08-11 15:32:00,84.9,62.4,30.28,SE,135,1.0,2.0,47,0.00,,,0.00,meteohub,2013-08-11 19:32:00,
2013-08-11 15:43:00,86.0,63.5,30.28,SE,135,1.0,3.0,47,0.00,,,0.00,meteohub,2013-08-11 19:43:00,
2013-08-11 15:52:00,87.1,62.6,30.29,SE,135,0.0,3.0,44,0.00,,,0.00,meteohub,2013-08-11 19:52:00,
2013-08-11 16:02:00,88.0,63.3,30.29,WSW,247,2.0,2.0,44,0.00,,,0.00,meteohub,2013-08-11 20:02:00,
2013-08-11 16:15:00,86.0,61.5,30.29,SE,135,1.0,3.0,44,0.00,,,0.00,meteohub,2013-08-11 20:15:00,
2013-08-11 16:25:00,87.1,61.2,30.28,SE,135,2.0,3.0,42,0.00,,,0.00,meteohub,2013-08-11 20:25:00,
2013-08-11 16:32:00,87.1,61.9,30.28,SE,135,0.0,2.0,43,0.00,,,0.00,meteohub,2013-08-11 20:32:00,
2013-08-11 16:42:00,87.1,62.6,30.28,SE,135,2.0,3.0,44,0.00,,,0.00,meteohub,2013-08-11 20:42:00,
2013-08-11 16:52:00,88.0,63.3,30.28,SE,135,0.0,3.0,44,0.00,,,0.00,meteohub,2013-08-11 20:52:00,
2013-08-11 17:02:00,88.0,62.1,30.27,WNW,292,0.0,3.0,42,0.00,,,0.00,meteohub,2013-08-11 21:02:00,
2013-08-11 17:12:00,88.0,62.6,30.27,SE,135,1.0,2.0,43,0.00,,,0.00,meteohub,2013-08-11 21:12:00,
2013-08-11 17:22:00,87.1,61.9,30.27,SE,135,0.0,2.0,43,0.00,,,0.00,meteohub,2013-08-11 21:22:00,
2013-08-11 17:32:00,86.0,62.2,30.27,SE,135,0.0,2.0,45,0.00,,,0.00,meteohub,2013-08-11 21:32:00,
2013-08-11 17:42:00,87.1,62.6,30.28,SSW,202,1.0,3.0,44,0.00,,,0.00,meteohub,2013-08-11 21:42:00,
2013-08-11 17:52:00,88.0,64.0,30.27,South,180,2.0,4.0,45,0.00,,,0.00,meteohub,2013-08-11 21:52:00,
2013-08-11 18:02:00,86.0,65.8,30.27,SE,135,1.0,4.0,51,0.00,,,0.00,meteohub,2013-08-11 22:02:00,
2013-08-11 18:12:00,86.0,65.1,30.26,South,180,2.0,3.0,50,0.00,,,0.00,meteohub,2013-08-11 22:12:00,
2013-08-11 18:25:00,84.9,64.2,30.26,SE,135,0.0,3.0,50,0.00,,,0.00,meteohub,2013-08-11 22:25:00,
2013-08-11 18:32:00,84.9,64.2,30.25,SSW,202,1.0,2.0,50,0.00,,,0.00,meteohub,2013-08-11 22:32:00,
2013-08-11 18:42:00,86.0,62.8,30.24,South,180,0.0,2.0,46,0.00,,,0.00,meteohub,2013-08-11 22:42:00,
2013-08-11 18:52:00,86.0,63.5,30.25,South,180,1.0,2.0,47,0.00,,,0.00,meteohub,2013-08-11 22:52:00,
2013-08-11 19:02:00,84.0,63.3,30.24,SW,225,0.0,2.0,50,0.00,,,0.00,meteohub,2013-08-11 23:02:00,
2013-08-11 19:15:00,82.0,64.2,30.24,SW,225,0.0,2.0,55,0.00,,,0.00,meteohub,2013-08-11 23:15:00,
2013-08-11 19:22:00,81.0,65.3,30.24,WSW,247,0.0,2.0,59,0.00,,,0.00,meteohub,2013-08-11 23:22:00,
2013-08-11 19:32:00,80.1,65.5,30.23,WSW,247,0.0,2.0,61,0.00,,,0.00,meteohub,2013-08-11 23:32:00,
2013-08-11 19:43:00,79.0,65.3,30.23,WSW,247,0.0,1.0,63,0.00,,,0.00,meteohub,2013-08-11 23:43:00,
2013-08-11 19:52:00,78.1,65.8,30.23,WSW,247,0.0,0.0,66,0.00,,,0.00,meteohub,2013-08-11 23:52:00,
2013-08-11 20:02:00,78.1,66.7,30.23,WSW,247,0.0,1.0,68,0.00,,,0.00,meteohub,2013-08-12 00:02:00,
2013-08-11 20:15:00,77.0,66.4,30.23,WSW,247,0.0,0.0,70,0.00,,,0.00,meteohub,2013-08-12 00:15:00,
2013-08-11 20:22:00,77.0,67.3,30.23,WSW,247,0.0,0.0,72,0.00,,,0.00,meteohub,2013-08-12 00:22:00,
2013-08-11 20:32:00,77.0,68.0,30.23,WSW,247,0.0,0.0,74,0.00,,,0.00,meteohub,2013-08-12 00:32:00,
2013-08-11 20:43:00,77.0,68.5,30.23,WSW,247,0.0,0.0,75,0.00,,,0.00,meteohub,2013-08-12 00:43:00,
2013-08-11 20:55:00,75.9,67.8,30.23,WSW,247,0.0,0.0,76,0.00,,,0.00,meteohub,2013-08-12 00:55:00,
2013-08-11 21:02:00,75.9,68.2,30.23,WSW,247,0.0,1.0,77,0.00,,,0.00,meteohub,2013-08-12 01:02:00,
2013-08-11 21:12:00,75.9,68.9,30.23,WSW,247,0.0,1.0,79,0.00,,,0.00,meteohub,2013-08-12 01:12:00,
2013-08-11 21:26:00,75.9,69.3,30.24,WSW,247,0.0,0.0,80,0.00,,,0.00,meteohub,2013-08-12 01:26:00,
2013-08-11 21:35:00,75.9,69.3,30.24,SSW,202,1.0,3.0,80,0.00,,,0.00,meteohub,2013-08-12 01:35:00,
2013-08-11 21:42:00,75.9,69.6,30.24,SSW,202,0.0,3.0,81,0.00,,,0.00,meteohub,2013-08-12 01:42:00,
2013-08-11 21:52:00,75.0,68.7,30.23,SSW,202,0.0,2.0,81,0.00,,,0.00,meteohub,2013-08-12 01:52:00,
2013-08-11 22:05:00,75.0,69.1,30.23,SSW,202,0.0,2.0,82,0.00,,,0.00,meteohub,2013-08-12 02:05:00,
2013-08-11 22:12:00,75.0,69.1,30.22,SSW,202,0.0,2.0,82,0.00,,,0.00,meteohub,2013-08-12 02:12:00,
2013-08-11 22:22:00,75.0,69.4,30.22,SSW,202,0.0,1.0,83,0.00,,,0.00,meteohub,2013-08-12 02:22:00,
2013-08-11 22:32:00,73.9,68.7,30.22,SSW,202,0.0,0.0,84,0.00,,,0.00,meteohub,2013-08-12 02:32:00,
2013-08-11 22:42:00,73.9,68.7,30.22,SSW,202,0.0,0.0,84,0.00,,,0.00,meteohub,2013-08-12 02:42:00,
2013-08-11 22:52:00,73.9,68.7,30.22,SSW,202,0.0,0.0,84,0.00,,,0.00,meteohub,2013-08-12 02:52:00,
2013-08-11 23:05:00,73.0,67.6,30.22,SSW,202,0.0,0.0,83,0.00,,,0.00,meteohub,2013-08-12 03:05:00,
2013-08-11 23:12:00,73.0,67.6,30.22,SSW,202,0.0,0.0,83,0.00,,,0.00,meteohub,2013-08-12 03:12:00,
2013-08-11 23:22:00,73.0,68.0,30.22,SSW,202,0.0,0.0,84,0.00,,,0.00,meteohub,2013-08-12 03:22:00,
2013-08-11 23:32:00,73.0,67.6,30.21,SSW,202,0.0,0.0,83,0.00,,,0.00,meteohub,2013-08-12 03:32:00,
2013-08-11 23:42:00,73.0,67.6,30.21,SSW,202,0.0,0.0,83,0.00,,,0.00,meteohub,2013-08-12 03:42:00,
2013-08-11 23:52:00,73.0,67.6,30.21,SSW,202,0.0,0.0,83,0.00,,,0.00,meteohub,2013-08-12 03:52:00,